Time;durP1;ratioP1;P1;durP2;ratioP2;P2;SDS_P1;SDS_P2;PMS_P1;PMS_P2;Temp;Humidity;BMP_temperature;BMP_pressure;BME280_temperature;BME280_humidity;BME280_pressure;Samples;Min_cycle;Max_cycle;Signal;HPM_P1;HPM_P2
2023/03/31 00:01:47;;;;;;;20.13;3.95;;;10.00;99.90;;;;;;5090373;28;20055;-83
2023/03/31 00:04:12;;;;;;;22.52;3.80;;;10.00;99.90;;;;;;5111184;27;20118;-83
2023/03/31 00:06:43;;;;;;;25.70;3.85;;;10.00;99.90;;;;;;5106794;27;20027;-83
2023/03/31 00:09:12;;;;;;;28.35;4.35;;;10.10;99.90;;;;;;5095781;28;20035;-83
2023/03/31 00:11:39;;;;;;;23.10;4.22;;;10.00;99.90;;;;;;5114843;27;20054;-84
2023/03/31 00:14:06;;;;;;;22.80;3.63;;;10.10;99.90;;;;;;5123285;27;20502;-83
2023/03/31 00:16:36;;;;;;;25.63;4.03;;;10.10;99.90;;;;;;5108568;27;20085;-83
2023/03/31 00:19:02;;;;;;;22.23;3.70;;;10.10;99.90;;;;;;5108793;28;20113;-83
2023/03/31 00:21:32;;;;;;;25.10;4.00;;;10.10;99.90;;;;;;5114284;27;20043;-82
2023/03/31 00:24:03;;;;;;;21.13;4.45;;;10.10;99.90;;;;;;5122974;27;20043;-84
2023/03/31 00:26:29;;;;;;;27.67;4.55;;;10.10;99.90;;;;;;5091241;28;20077;-83
2023/03/31 00:28:56;;;;;;;21.95;4.93;;;10.10;99.90;;;;;;5092594;28;20555;-84
2023/03/31 00:31:22;;;;;;;20.55;4.53;;;10.10;99.90;;;;;;5090767;28;20036;-83
2023/03/31 00:33:48;;;;;;;23.48;5.03;;;10.00;99.90;;;;;;5110746;28;20055;-83
2023/03/31 00:36:19;;;;;;;23.80;3.75;;;10.00;99.90;;;;;;5087701;28;20044;-84
2023/03/31 00:38:46;;;;;;;30.25;4.13;;;10.00;99.90;;;;;;5092466;28;20036;-83
2023/03/31 00:41:13;;;;;;;21.75;3.72;;;9.90;99.90;;;;;;5114801;28;20035;-84
2023/03/31 00:43:39;;;;;;;27.10;5.13;;;9.90;99.90;;;;;;5103125;28;20380;-83
2023/03/31 00:46:14;;;;;;;26.00;4.78;;;9.90;99.90;;;;;;5092366;28;20484;-83
2023/03/31 00:48:49;;;;;;;24.33;3.78;;;9.80;99.90;;;;;;5109103;28;20499;-83
2023/03/31 00:51:17;;;;;;;20.75;3.65;;;9.80;99.90;;;;;;5112327;27;20104;-83
2023/03/31 00:53:47;;;;;;;21.73;3.88;;;9.70;99.90;;;;;;5108613;28;20073;-83
2023/03/31 00:56:15;;;;;;;26.17;4.50;;;9.80;99.90;;;;;;5102263;28;20028;-83
2023/03/31 00:58:43;;;;;;;21.98;4.25;;;9.80;99.90;;;;;;5093235;28;20036;-83
2023/03/31 01:01:15;;;;;;;27.77;4.47;;;9.80;99.90;;;;;;5098030;28;20436;-84
2023/03/31 01:03:41;;;;;;;25.88;5.05;;;9.80;99.90;;;;;;5088960;28;20032;-83
2023/03/31 01:06:09;;;;;;;18.83;3.67;;;9.80;99.90;;;;;;5085942;28;20070;-83
2023/03/31 01:08:37;;;;;;;22.65;4.07;;;9.80;99.90;;;;;;5097835;28;20074;-84
2023/03/31 01:11:06;;;;;;;20.35;4.15;;;9.70;99.90;;;;;;5101567;27;20036;-84
2023/03/31 01:13:33;;;;;;;19.90;3.85;;;9.70;99.90;;;;;;5112743;27;20040;-83
2023/03/31 01:15:59;;;;;;;20.20;4.10;;;9.60;99.90;;;;;;5110732;28;20043;-84
2023/03/31 01:18:26;;;;;;;15.65;3.70;;;9.60;99.90;;;;;;5106887;28;20483;-84
2023/03/31 01:21:13;;;;;;;21.73;3.70;;;9.60;99.90;;;;;;5117089;27;20046;-84
2023/03/31 01:24:09;;;;;;;23.73;3.80;;;9.60;99.90;;;;;;5106884;28;20040;-83
2023/03/31 01:26:53;;;;;;;20.58;3.47;;;9.50;99.90;;;;;;5106152;28;20039;-84
2023/03/31 01:29:47;;;;;;;18.60;3.70;;;9.50;99.90;;;;;;5110584;28;20082;-83
2023/03/31 01:32:48;;;;;;;20.27;3.60;;;9.50;99.90;;;;;;5091877;27;20043;-83
2023/03/31 01:35:46;;;;;;;22.67;3.78;;;9.50;99.90;;;;;;5110954;28;20036;-83
2023/03/31 01:38:47;;;;;;;20.50;3.75;;;9.40;99.90;;;;;;5114917;27;20040;-83
2023/03/31 01:41:31;;;;;;;24.63;3.72;;;9.40;99.90;;;;;;5112315;27;20053;-84
2023/03/31 01:44:29;;;;;;;20.20;3.92;;;9.40;99.90;;;;;;5095652;28;20072;-84
2023/03/31 01:47:27;;;;;;;24.38;3.30;;;9.40;99.90;;;;;;5107394;28;20046;-85
2023/03/31 01:50:09;;;;;;;16.80;3.50;;;9.30;99.90;;;;;;5070885;28;20089;-83
2023/03/31 01:52:55;;;;;;;23.48;4.43;;;9.30;99.90;;;;;;5110475;27;20031;-83
2023/03/31 01:55:38;;;;;;;24.25;4.20;;;9.30;99.90;;;;;;5091838;28;20489;-83
2023/03/31 01:58:17;;;;;;;24.52;4.13;;;9.30;99.90;;;;;;5091061;27;20043;-84
2023/03/31 02:00:50;;;;;;;13.18;3.65;;;9.30;99.90;;;;;;5111075;27;20036;-83
2023/03/31 02:03:47;;;;;;;12.93;3.35;;;9.30;99.90;;;;;;5090302;27;20061;-83
2023/03/31 02:06:19;;;;;;;20.88;3.47;;;9.30;99.90;;;;;;5111152;28;20040;-83
2023/03/31 02:08:51;;;;;;;13.95;3.13;;;9.30;99.90;;;;;;5107713;27;20031;-83
2023/03/31 02:11:17;;;;;;;15.30;3.13;;;9.30;99.90;;;;;;5111738;27;20039;-84
2023/03/31 02:13:46;;;;;;;20.15;3.65;;;9.30;99.90;;;;;;5111020;27;20035;-83
2023/03/31 02:16:16;;;;;;;20.15;3.08;;;9.20;99.90;;;;;;5105717;27;20039;-85
2023/03/31 02:18:43;;;;;;;22.95;3.97;;;9.20;99.90;;;;;;5140849;27;20035;-83
2023/03/31 02:21:10;;;;;;;20.02;3.75;;;9.30;99.90;;;;;;5113911;27;20380;-83
2023/03/31 02:23:37;;;;;;;20.55;2.70;;;9.30;99.90;;;;;;5112958;28;20039;-84
2023/03/31 02:26:12;;;;;;;17.63;3.35;;;9.30;99.90;;;;;;5110990;28;20036;-83
2023/03/31 02:28:39;;;;;;;19.52;2.80;;;9.30;99.90;;;;;;5108844;27;20118;-84
2023/03/31 02:31:37;;;;;;;18.85;3.15;;;9.30;99.90;;;;;;5139521;27;20048;-83
2023/03/31 02:34:02;;;;;;;18.70;3.47;;;9.40;99.90;;;;;;5094765;27;20088;-83
2023/03/31 02:36:28;;;;;;;23.65;3.60;;;9.40;99.90;;;;;;5075831;28;20075;-83
2023/03/31 02:38:59;;;;;;;18.65;3.10;;;9.40;99.90;;;;;;5109256;27;20522;-83
2023/03/31 02:41:25;;;;;;;18.92;3.88;;;9.40;99.90;;;;;;5107951;27;20027;-83
2023/03/31 02:43:50;;;;;;;18.77;3.38;;;9.50;99.90;;;;;;5094500;27;20088;-83
2023/03/31 02:46:16;;;;;;;16.92;3.42;;;9.50;99.90;;;;;;5112013;27;20121;-84
2023/03/31 02:48:47;;;;;;;15.25;3.10;;;9.50;99.90;;;;;;5111351;27;20035;-83
2023/03/31 02:51:39;;;;;;;18.05;3.22;;;9.90;99.90;;;;;;5115418;27;20134;-83
2023/03/31 02:54:27;;;;;;;15.73;2.67;;;9.50;99.90;;;;;;5132369;27;20105;-83
2023/03/31 02:57:18;;;;;;;16.20;2.90;;;9.50;99.90;;;;;;5109665;28;20403;-83
2023/03/31 03:00:06;;;;;;;16.45;2.90;;;9.50;99.90;;;;;;5090421;27;20927;-82
2023/03/31 03:03:07;;;;;;;17.17;3.28;;;9.50;99.90;;;;;;5092565;27;20038;-83
2023/03/31 03:05:39;;;;;;;16.20;3.20;;;9.50;99.90;;;;;;5136045;27;20036;-83
2023/03/31 03:08:15;;;;;;;15.40;2.60;;;9.50;99.90;;;;;;5094679;27;20063;-83
2023/03/31 03:10:52;;;;;;;20.13;3.08;;;9.50;99.90;;;;;;5111777;28;20046;-83
2023/03/31 03:13:42;;;;;;;13.32;3.05;;;9.40;99.90;;;;;;5115605;27;20108;-85
2023/03/31 03:16:17;;;;;;;15.13;3.03;;;9.40;99.90;;;;;;5132940;27;20040;-85
2023/03/31 03:18:44;;;;;;;12.35;2.33;;;9.40;99.90;;;;;;5112701;27;20114;-85
2023/03/31 03:21:12;;;;;;;12.45;2.90;;;9.30;99.90;;;;;;5114354;27;20028;-83
2023/03/31 03:23:37;;;;;;;13.38;2.60;;;9.30;99.90;;;;;;5114673;27;20407;-82
2023/03/31 03:26:03;;;;;;;17.48;3.25;;;9.30;99.90;;;;;;5122264;27;20028;-83
2023/03/31 03:28:28;;;;;;;16.30;3.10;;;9.30;99.90;;;;;;5132638;27;20040;-82
2023/03/31 03:30:54;;;;;;;12.38;2.47;;;9.30;99.90;;;;;;5097595;28;20039;-82
2023/03/31 03:33:23;;;;;;;18.52;3.47;;;9.30;99.90;;;;;;5116892;27;20043;-83
2023/03/31 03:35:49;;;;;;;16.67;3.00;;;9.20;99.90;;;;;;5092177;28;20084;-83
2023/03/31 03:38:14;;;;;;;19.67;3.80;;;9.30;99.90;;;;;;5102496;28;20044;-83
2023/03/31 03:40:40;;;;;;;14.07;3.33;;;9.30;99.90;;;;;;5097339;28;20406;-83
2023/03/31 03:43:05;;;;;;;17.15;2.72;;;9.30;99.90;;;;;;5138287;27;20040;-83
2023/03/31 03:45:31;;;;;;;16.75;3.22;;;9.30;99.90;;;;;;5117212;27;20032;-83
2023/03/31 03:47:57;;;;;;;15.63;3.40;;;9.30;99.90;;;;;;5114131;27;20035;-82
2023/03/31 03:50:22;;;;;;;10.88;3.13;;;9.30;99.90;;;;;;5136669;27;20043;-82
2023/03/31 03:52:48;;;;;;;11.73;2.80;;;9.30;99.90;;;;;;5114253;27;20586;-83
2023/03/31 03:55:13;;;;;;;9.63;2.63;;;9.30;99.90;;;;;;5118181;27;20122;-82
2023/03/31 03:57:39;;;;;;;11.02;2.80;;;9.50;99.90;;;;;;5096265;28;20123;-83
2023/03/31 04:00:09;;;;;;;13.25;3.40;;;9.40;99.90;;;;;;5106148;27;20525;-82
2023/03/31 04:02:34;;;;;;;10.82;3.00;;;9.40;99.90;;;;;;5097444;27;20426;-83
2023/03/31 04:05:00;;;;;;;10.45;3.13;;;9.40;99.90;;;;;;5115384;27;20036;-82
2023/03/31 04:07:26;;;;;;;9.00;3.05;;;9.40;99.90;;;;;;5131661;27;20066;-82
2023/03/31 04:09:51;;;;;;;16.48;3.85;;;9.50;99.90;;;;;;5111904;27;20043;-82
2023/03/31 04:12:17;;;;;;;10.00;2.95;;;9.40;99.90;;;;;;5109177;27;20047;-82
2023/03/31 04:14:42;;;;;;;10.55;3.38;;;9.50;99.90;;;;;;5119489;27;20031;-82
2023/03/31 04:17:09;;;;;;;9.35;3.25;;;9.50;99.90;;;;;;5109928;27;20092;-82
2023/03/31 04:19:34;;;;;;;14.02;3.80;;;9.50;99.90;;;;;;5114880;27;20036;-83
2023/03/31 04:22:01;;;;;;;12.25;3.67;;;9.50;99.90;;;;;;5106102;28;20119;-82
2023/03/31 04:24:31;;;;;;;12.38;3.70;;;9.50;99.90;;;;;;5117147;27;20084;-81
2023/03/31 04:26:59;;;;;;;12.02;3.60;;;9.50;99.90;;;;;;5087427;28;20640;-82
2023/03/31 04:29:27;;;;;;;13.18;4.18;;;9.50;99.90;;;;;;5109841;28;20032;-81
2023/03/31 04:31:57;;;;;;;11.75;4.60;;;9.50;99.90;;;;;;5111287;28;20074;-81
2023/03/31 04:34:25;;;;;;;14.40;4.68;;;9.50;99.90;;;;;;5105369;28;20065;-82
2023/03/31 04:36:54;;;;;;;12.13;4.53;;;9.50;99.90;;;;;;5109342;28;20036;-81
2023/03/31 04:39:25;;;;;;;13.27;4.90;;;9.50;99.90;;;;;;5109007;28;20039;-82
2023/03/31 04:41:52;;;;;;;11.70;5.45;;;9.50;99.90;;;;;;5094011;28;20032;-82
2023/03/31 04:44:17;;;;;;;14.20;5.15;;;9.50;99.90;;;;;;5106990;27;20300;-82
2023/03/31 04:46:43;;;;;;;12.32;5.40;;;9.50;99.90;;;;;;5097630;27;20039;-82
2023/03/31 04:49:08;;;;;;;17.27;5.15;;;9.50;99.90;;;;;;5123885;27;20043;-82
2023/03/31 04:51:34;;;;;;;13.35;5.57;;;9.50;99.90;;;;;;5104417;28;20058;-82
2023/03/31 04:54:00;;;;;;;12.57;5.88;;;9.50;99.90;;;;;;5116490;27;20043;-82
2023/03/31 04:56:26;;;;;;;15.70;5.85;;;9.50;99.90;;;;;;5105214;28;20066;-81
2023/03/31 04:58:51;;;;;;;12.82;6.28;;;9.50;99.90;;;;;;5108910;27;20040;-82
2023/03/31 05:01:17;;;;;;;12.52;5.65;;;9.50;99.90;;;;;;5093724;27;20402;-81
2023/03/31 05:03:44;;;;;;;16.23;5.75;;;9.50;99.90;;;;;;5098762;27;20084;-81
2023/03/31 05:06:10;;;;;;;15.20;5.32;;;9.50;99.90;;;;;;5115728;27;20417;-82
2023/03/31 05:08:36;;;;;;;15.27;6.45;;;9.50;99.90;;;;;;5115441;27;20051;-82
2023/03/31 05:11:02;;;;;;;15.02;5.82;;;9.50;99.90;;;;;;5098971;27;20035;-81
2023/03/31 05:13:28;;;;;;;13.68;5.60;;;9.50;99.90;;;;;;5113132;27;20123;-82
2023/03/31 05:15:54;;;;;;;11.88;5.70;;;9.50;99.90;;;;;;5092801;28;20114;-82
2023/03/31 05:18:19;;;;;;;14.60;5.57;;;9.50;99.90;;;;;;5107497;27;20471;-82
2023/03/31 05:20:45;;;;;;;12.48;5.60;;;9.50;99.90;;;;;;5113359;27;20027;-82
2023/03/31 05:23:10;;;;;;;14.60;5.40;;;9.50;99.90;;;;;;5106990;27;20035;-82
2023/03/31 05:25:36;;;;;;;12.38;5.68;;;9.50;99.90;;;;;;5104995;28;20035;-82
2023/03/31 05:28:02;;;;;;;11.60;5.82;;;9.50;99.90;;;;;;5110910;27;20547;-82
2023/03/31 05:30:28;;;;;;;11.48;5.13;;;9.50;99.90;;;;;;5118487;27;20038;-82
2023/03/31 05:32:54;;;;;;;14.90;5.13;;;9.60;99.90;;;;;;5099014;28;20067;-82
2023/03/31 05:35:20;;;;;;;11.68;5.15;;;9.60;99.90;;;;;;5118032;27;20032;-82
2023/03/31 05:37:46;;;;;;;11.77;5.03;;;9.60;99.90;;;;;;5105278;28;20031;-81
2023/03/31 05:40:12;;;;;;;10.68;4.47;;;9.60;99.90;;;;;;5117137;27;20479;-83
2023/03/31 05:42:37;;;;;;;12.23;4.95;;;9.60;99.90;;;;;;5092632;28;20035;-83
2023/03/31 05:45:04;;;;;;;11.75;4.97;;;9.60;99.90;;;;;;5137894;27;20044;-82
2023/03/31 05:47:29;;;;;;;13.75;4.82;;;9.60;99.90;;;;;;5113828;28;20483;-82
2023/03/31 05:49:55;;;;;;;12.05;4.82;;;9.60;99.90;;;;;;5116009;27;20046;-82
2023/03/31 05:52:20;;;;;;;12.07;4.72;;;9.70;99.90;;;;;;5118730;27;20039;-82
2023/03/31 05:54:46;;;;;;;10.90;4.45;;;9.70;99.90;;;;;;5123251;27;20044;-82
2023/03/31 05:57:11;;;;;;;13.27;4.53;;;9.70;99.90;;;;;;5122433;27;20040;-83
2023/03/31 05:59:39;;;;;;;10.02;4.50;;;9.70;99.90;;;;;;5103563;28;20491;-82
2023/03/31 06:02:05;;;;;;;9.95;4.32;;;9.70;99.90;;;;;;5108433;28;20036;-83
2023/03/31 06:04:31;;;;;;;7.50;3.60;;;9.70;99.90;;;;;;5105231;27;20106;-83
2023/03/31 06:06:57;;;;;;;9.35;4.05;;;9.60;99.90;;;;;;5120077;27;20039;-83
2023/03/31 06:09:23;;;;;;;10.75;3.95;;;9.60;99.90;;;;;;5120958;27;20054;-83
2023/03/31 06:11:49;;;;;;;11.63;3.83;;;9.60;99.90;;;;;;5110808;28;20067;-83
2023/03/31 06:14:15;;;;;;;10.38;4.00;;;9.60;99.90;;;;;;5103736;28;20129;-83
2023/03/31 06:16:40;;;;;;;9.43;4.30;;;9.60;99.90;;;;;;5137152;27;20039;-83
2023/03/31 06:19:06;;;;;;;12.73;4.07;;;9.70;99.90;;;;;;5126919;27;20115;-83
2023/03/31 06:21:32;;;;;;;9.38;3.97;;;9.60;99.90;;;;;;5108598;28;20108;-83
2023/03/31 06:23:59;;;;;;;10.98;3.95;;;9.60;99.90;;;;;;5087778;28;20039;-83
2023/03/31 06:26:25;;;;;;;8.45;3.50;;;9.60;99.90;;;;;;5114338;27;20062;-83
2023/03/31 06:28:50;;;;;;;12.02;4.03;;;9.70;99.90;;;;;;5112188;27;20037;-83
2023/03/31 06:31:19;;;;;;;10.48;4.38;;;9.70;99.90;;;;;;5129438;27;20090;-83
2023/03/31 06:33:45;;;;;;;7.43;3.72;;;9.70;99.90;;;;;;5108017;28;20028;-84
2023/03/31 06:36:13;;;;;;;8.07;3.95;;;9.70;99.90;;;;;;5105935;28;20104;-83
2023/03/31 06:38:39;;;;;;;9.70;4.03;;;9.70;99.90;;;;;;5139678;27;20028;-84
2023/03/31 06:41:06;;;;;;;11.20;4.00;;;9.70;99.90;;;;;;5112622;27;20083;-83
2023/03/31 06:43:32;;;;;;;11.27;3.83;;;9.70;99.90;;;;;;5092414;28;20032;-83
2023/03/31 06:45:57;;;;;;;7.03;3.78;;;9.80;99.90;;;;;;5112210;28;20039;-83
2023/03/31 06:48:24;;;;;;;7.03;3.50;;;9.70;99.90;;;;;;5112209;28;20035;-83
2023/03/31 06:50:50;;;;;;;9.30;3.60;;;9.70;99.90;;;;;;5106070;28;20031;-84
2023/03/31 06:53:16;;;;;;;9.45;3.83;;;9.80;99.90;;;;;;5111737;28;20039;-83
2023/03/31 06:55:41;;;;;;;8.75;4.15;;;9.70;99.90;;;;;;5092544;28;20040;-83
2023/03/31 06:58:07;;;;;;;10.18;4.25;;;9.70;99.90;;;;;;5136069;27;20044;-84
2023/03/31 07:00:32;;;;;;;9.95;3.25;;;9.70;99.90;;;;;;5112854;27;20032;-84
2023/03/31 07:02:58;;;;;;;7.80;3.92;;;9.80;99.90;;;;;;5104306;28;20032;-83
2023/03/31 07:05:27;;;;;;;8.10;3.83;;;9.80;99.90;;;;;;5141925;27;20031;-83
2023/03/31 07:07:54;;;;;;;10.93;3.83;;;9.70;99.90;;;;;;5102665;28;20036;-84
2023/03/31 07:10:20;;;;;;;7.10;3.90;;;9.80;99.90;;;;;;5105473;28;20036;-84
2023/03/31 07:12:46;;;;;;;6.95;3.65;;;9.70;99.90;;;;;;5088045;28;20119;-83
2023/03/31 07:15:11;;;;;;;8.13;3.75;;;9.70;99.90;;;;;;5108230;28;20118;-84
2023/03/31 07:17:40;;;;;;;7.20;3.70;;;9.80;99.90;;;;;;5106355;27;20035;-83
2023/03/31 07:20:16;;;;;;;6.68;3.60;;;9.80;99.90;;;;;;5092446;28;20148;-84
2023/03/31 07:22:46;;;;;;;6.50;3.58;;;9.80;99.90;;;;;;5106189;28;20036;-84
2023/03/31 07:25:14;;;;;;;7.78;3.42;;;9.80;99.90;;;;;;5139448;27;20085;-84
2023/03/31 07:27:40;;;;;;;6.93;3.88;;;9.80;99.90;;;;;;5104018;28;20031;-84
2023/03/31 07:30:09;;;;;;;6.75;3.40;;;9.90;99.90;;;;;;5093389;28;20089;-83
2023/03/31 07:32:38;;;;;;;7.55;3.55;;;9.90;99.90;;;;;;5106940;28;20031;-83
2023/03/31 07:35:05;;;;;;;8.27;3.63;;;9.90;99.90;;;;;;5114446;27;20043;-84
2023/03/31 07:37:38;;;;;;;8.00;3.90;;;9.90;99.90;;;;;;5094161;28;20040;-85
2023/03/31 07:40:05;;;;;;;6.53;3.40;;;9.90;99.90;;;;;;5103598;28;20488;-83
2023/03/31 07:42:31;;;;;;;6.43;3.20;;;10.00;99.90;;;;;;5106879;28;20035;-83
2023/03/31 07:44:57;;;;;;;6.55;3.22;;;9.90;99.90;;;;;;5110070;27;20046;-83
2023/03/31 07:47:23;;;;;;;8.32;3.67;;;10.00;99.90;;;;;;5102980;28;20032;-83
2023/03/31 07:49:49;;;;;;;7.60;3.50;;;10.00;99.90;;;;;;5094608;28;20501;-83
2023/03/31 07:52:16;;;;;;;7.05;3.33;;;10.00;99.90;;;;;;5134121;27;20067;-83
2023/03/31 07:54:41;;;;;;;5.90;3.08;;;10.00;99.90;;;;;;5102008;27;20040;-84
2023/03/31 07:57:07;;;;;;;6.85;3.40;;;10.00;99.90;;;;;;5092044;27;20046;-84
2023/03/31 07:59:33;;;;;;;5.30;2.80;;;10.00;99.90;;;;;;5108939;28;20040;-83
2023/03/31 08:01:59;;;;;;;6.80;2.92;;;10.00;99.90;;;;;;5104963;28;20039;-83
2023/03/31 08:04:25;;;;;;;6.90;2.90;;;9.90;99.90;;;;;;5095561;28;20114;-83
2023/03/31 08:06:51;;;;;;;7.97;3.00;;;9.90;99.90;;;;;;5113160;27;20264;-85
2023/03/31 08:09:17;;;;;;;6.18;2.90;;;10.00;99.90;;;;;;5110613;27;20077;-84
2023/03/31 08:11:43;;;;;;;5.30;2.50;;;9.90;99.90;;;;;;5101633;27;20085;-84
2023/03/31 08:14:08;;;;;;;6.35;2.55;;;9.90;99.90;;;;;;5106975;27;20040;-85
2023/03/31 08:16:34;;;;;;;8.00;2.38;;;9.90;99.90;;;;;;5109774;27;20138;-83
2023/03/31 08:19:00;;;;;;;4.97;2.47;;;9.90;99.90;;;;;;5102823;28;20033;-83
2023/03/31 08:21:27;;;;;;;8.15;2.53;;;10.00;99.90;;;;;;5129776;27;20039;-84
2023/03/31 08:23:56;;;;;;;5.72;2.40;;;10.00;99.90;;;;;;5105620;27;20498;-84
2023/03/31 08:26:24;;;;;;;6.65;2.70;;;10.00;99.90;;;;;;5099366;28;20036;-83
2023/03/31 08:28:50;;;;;;;5.07;2.60;;;10.00;99.90;;;;;;5091522;28;20055;-84
2023/03/31 08:31:17;;;;;;;6.10;2.80;;;10.00;99.90;;;;;;5107628;27;20050;-84
2023/03/31 08:33:44;;;;;;;6.60;2.65;;;10.00;99.90;;;;;;5110627;28;20031;-83
2023/03/31 08:36:11;;;;;;;6.78;2.67;;;10.10;99.90;;;;;;5113230;28;20036;-84
2023/03/31 08:38:40;;;;;;;4.75;2.72;;;10.10;99.90;;;;;;5118299;28;20042;-84
2023/03/31 08:41:11;;;;;;;6.95;2.88;;;10.10;99.90;;;;;;5112363;28;20050;-84
2023/03/31 08:43:42;;;;;;;8.40;3.33;;;10.10;99.90;;;;;;5106384;28;20028;-84
2023/03/31 08:46:12;;;;;;;5.80;3.03;;;10.10;99.90;;;;;;5109224;28;20778;-84
2023/03/31 08:48:44;;;;;;;6.15;3.17;;;10.20;99.90;;;;;;5108875;28;20722;-84
2023/03/31 08:51:27;;;;;;;7.70;3.42;;;10.20;99.90;;;;;;5091348;28;20039;-84
2023/03/31 08:54:06;;;;;;;6.63;3.05;;;10.20;99.90;;;;;;5091814;28;20044;-84
2023/03/31 08:56:38;;;;;;;8.80;3.40;;;10.20;99.90;;;;;;5109250;28;20062;-84
2023/03/31 08:59:05;;;;;;;6.15;2.80;;;10.30;99.90;;;;;;5105009;28;20033;-84
2023/03/31 09:01:55;;;;;;;7.57;3.20;;;10.30;99.90;;;;;;5109256;28;20031;-84
2023/03/31 09:04:54;;;;;;;7.30;3.33;;;10.30;99.90;;;;;;5091494;28;20085;-84
2023/03/31 09:07:39;;;;;;;9.00;4.07;;;10.40;99.90;;;;;;5110420;28;20035;-84
2023/03/31 09:10:27;;;;;;;9.68;3.45;;;10.40;99.90;;;;;;5106838;28;20038;-84
2023/03/31 09:13:23;;;;;;;9.43;3.83;;;10.40;99.90;;;;;;5105732;28;20055;-84
2023/03/31 09:16:12;;;;;;;13.68;3.55;;;10.40;99.90;;;;;;5109520;28;20123;-84
2023/03/31 09:18:39;;;;;;;9.50;3.65;;;10.50;99.90;;;;;;5124277;27;20097;-84
2023/03/31 09:21:14;;;;;;;10.95;3.85;;;10.50;99.90;;;;;;5099055;28;20557;-84
2023/03/31 09:23:47;;;;;;;10.40;3.22;;;10.50;99.90;;;;;;5087470;28;20134;-83
2023/03/31 09:26:22;;;;;;;6.40;2.92;;;10.60;99.90;;;;;;5118783;28;20053;-83
2023/03/31 09:28:49;;;;;;;7.70;3.03;;;10.60;99.90;;;;;;5105636;28;20047;-84
2023/03/31 09:31:18;;;;;;;9.80;3.40;;;10.70;99.90;;;;;;5112329;27;20058;-84
2023/03/31 09:33:45;;;;;;;10.07;3.60;;;10.70;99.90;;;;;;5104543;27;20498;-84
2023/03/31 09:36:21;;;;;;;7.38;3.22;;;10.80;99.90;;;;;;5108745;28;20047;-84
2023/03/31 09:38:47;;;;;;;8.95;3.60;;;10.80;99.90;;;;;;5127551;27;20530;-84
2023/03/31 09:41:15;;;;;;;8.45;3.55;;;10.90;99.90;;;;;;5115750;27;20439;-84
2023/03/31 09:43:42;;;;;;;8.25;3.22;;;10.90;99.90;;;;;;5103425;27;20058;-84
2023/03/31 09:46:34;;;;;;;9.50;3.42;;;11.00;99.90;;;;;;5111127;27;20040;-84
2023/03/31 09:49:13;;;;;;;10.63;3.33;;;11.10;99.90;;;;;;5121332;27;20411;-84
2023/03/31 09:51:43;;;;;;;7.72;3.90;;;11.10;99.90;;;;;;5100009;27;20044;-84
2023/03/31 09:54:35;;;;;;;6.70;3.55;;;11.20;99.90;;;;;;5106566;27;20479;-84
2023/03/31 09:57:01;;;;;;;7.28;3.28;;;11.30;99.90;;;;;;5110385;27;20044;-84
2023/03/31 09:59:34;;;;;;;6.90;3.20;;;11.30;99.90;;;;;;5110480;27;20034;-83
2023/03/31 10:02:34;;;;;;;9.10;3.00;;;11.30;99.90;;;;;;5105068;27;20071;-84
2023/03/31 10:05:00;;;;;;;8.10;3.33;;;11.30;99.90;;;;;;5114946;27;20644;-84
2023/03/31 10:07:26;;;;;;;6.97;2.65;;;11.30;99.90;;;;;;5117724;27;20088;-84
2023/03/31 10:09:53;;;;;;;4.50;2.60;;;11.20;99.90;;;;;;5113372;27;20054;-83
2023/03/31 10:12:23;;;;;;;9.15;2.83;;;11.30;99.90;;;;;;5112376;27;21097;-84
2023/03/31 10:14:54;;;;;;;6.40;2.97;;;11.30;99.90;;;;;;5111172;27;20036;-84
2023/03/31 10:17:26;;;;;;;7.20;2.72;;;11.30;99.90;;;;;;5111926;28;20035;-84
2023/03/31 10:20:17;;;;;;;4.35;2.28;;;11.20;99.90;;;;;;5089453;28;20048;-83
2023/03/31 10:22:44;;;;;;;8.23;2.60;;;11.10;99.90;;;;;;5106245;27;20487;-83
2023/03/31 10:25:32;;;;;;;8.77;2.90;;;11.10;99.90;;;;;;5111056;27;20094;-84
2023/03/31 10:28:00;;;;;;;6.85;2.50;;;11.00;99.90;;;;;;5094774;28;20088;-84
2023/03/31 10:30:34;;;;;;;4.55;2.60;;;11.10;99.90;;;;;;5104118;28;20040;-84
2023/03/31 10:33:04;;;;;;;4.82;2.83;;;11.10;99.90;;;;;;5110316;27;20086;-83
2023/03/31 10:35:33;;;;;;;4.70;2.75;;;11.20;99.90;;;;;;5096866;27;20090;-84
2023/03/31 10:38:04;;;;;;;7.65;2.30;;;11.30;99.90;;;;;;5108549;28;20040;-84
2023/03/31 10:40:32;;;;;;;5.03;2.10;;;11.40;99.90;;;;;;5107555;28;20515;-83
2023/03/31 10:43:08;;;;;;;3.22;1.98;;;11.50;99.90;;;;;;5102682;28;20093;-83
2023/03/31 10:45:41;;;;;;;4.15;1.65;;;11.60;99.90;;;;;;5108885;28;20076;-84
2023/03/31 10:48:16;;;;;;;;;;;11.70;99.90;;;;;;5107126;28;20115;-83
2023/03/31 10:50:42;;;;;;;5.07;2.17;;;11.70;99.90;;;;;;5101038;28;20414;-83
2023/03/31 10:53:14;;;;;;;8.18;2.45;;;11.90;99.90;;;;;;5106110;28;20130;-84
2023/03/31 10:56:14;;;;;;;5.28;2.33;;;12.00;99.90;;;;;;5118101;27;20035;-83
2023/03/31 10:58:50;;;;;;;3.53;2.08;;;12.20;99.90;;;;;;5105337;28;20044;-83
2023/03/31 11:01:53;;;;;;;6.43;2.15;;;12.30;99.90;;;;;;5106735;28;20112;-84
2023/03/31 11:04:34;;;;;;;5.75;2.00;;;12.40;99.90;;;;;;5105717;28;20046;-84
2023/03/31 11:07:31;;;;;;;6.45;2.33;;;12.40;99.90;;;;;;5110995;28;20035;-84
2023/03/31 11:10:23;;;;;;;7.03;2.85;;;12.50;99.90;;;;;;5094825;28;20048;-84
2023/03/31 11:12:55;;;;;;;7.43;2.40;;;12.60;99.90;;;;;;5137590;27;20390;-84
2023/03/31 11:15:24;;;;;;;8.15;2.83;;;12.60;99.90;;;;;;5108786;28;20043;-83
2023/03/31 11:18:08;;;;;;;8.70;2.92;;;12.70;99.90;;;;;;5100966;28;20040;-83
2023/03/31 11:20:53;;;;;;;6.20;2.30;;;12.80;99.90;;;;;;5128019;27;20098;-83
2023/03/31 11:23:39;;;;;;;6.95;2.55;;;13.00;99.90;;;;;;5098378;28;20067;-84
2023/03/31 11:26:23;;;;;;;7.22;2.50;;;13.30;99.90;;;;;;5106001;28;20039;-84
2023/03/31 11:28:55;;;;;;;6.50;2.20;;;13.20;99.90;;;;;;5098348;28;20032;-84
2023/03/31 11:31:31;;;;;;;7.70;2.45;;;13.20;99.90;;;;;;5078890;28;20036;-83
2023/03/31 11:34:18;;;;;;;6.72;1.75;;;13.20;99.90;;;;;;5106826;28;20050;-84
2023/03/31 11:37:20;;;;;;;6.78;3.10;;;13.10;99.90;;;;;;5099965;28;20036;-84
2023/03/31 11:39:48;;;;;;;4.20;2.08;;;13.20;99.90;;;;;;5101498;27;20040;-84
2023/03/31 11:42:20;;;;;;;9.18;2.20;;;13.20;99.90;;;;;;5087337;28;20158;-83
2023/03/31 11:44:51;;;;;;;8.00;2.72;;;13.10;99.90;;;;;;5089957;28;20032;-84
2023/03/31 11:47:27;;;;;;;4.75;1.83;;;13.20;99.90;;;;;;5104919;28;20233;-84
2023/03/31 11:50:01;;;;;;;6.18;1.92;;;13.20;99.90;;;;;;5120801;27;20043;-84
2023/03/31 11:52:31;;;;;;;6.93;2.15;;;13.10;99.90;;;;;;5099250;28;20047;-82
2023/03/31 11:55:02;;;;;;;7.78;2.10;;;12.90;99.90;;;;;;5109227;28;20044;-83
2023/03/31 11:57:35;;;;;;;5.00;1.70;;;12.80;99.90;;;;;;5093681;28;20067;-84
2023/03/31 12:00:09;;;;;;;6.15;1.83;;;12.50;99.90;;;;;;5090421;28;20088;-83
2023/03/31 12:02:52;;;;;;;6.70;2.42;;;12.40;99.90;;;;;;5114903;27;20028;-84
2023/03/31 12:05:20;;;;;;;8.30;2.22;;;12.40;99.90;;;;;;5093172;28;20043;-84
2023/03/31 12:07:55;;;;;;;5.43;2.13;;;12.50;99.90;;;;;;5110516;28;20119;-84
2023/03/31 12:10:28;;;;;;;7.07;2.40;;;12.50;99.90;;;;;;5093925;28;20391;-84
2023/03/31 12:13:01;;;;;;;5.80;2.60;;;12.60;99.90;;;;;;5106888;28;20032;-84
2023/03/31 12:15:38;;;;;;;7.63;2.63;;;12.50;99.90;;;;;;5086215;28;20046;-84
2023/03/31 12:18:18;;;;;;;7.95;3.20;;;12.50;99.90;;;;;;5106255;28;20403;-84
2023/03/31 12:20:51;;;;;;;6.18;2.80;;;12.50;99.90;;;;;;5116697;27;20032;-84
2023/03/31 12:23:22;;;;;;;8.60;2.50;;;12.50;99.90;;;;;;5110141;27;20031;-84
2023/03/31 12:26:10;;;;;;;5.05;1.83;;;12.50;99.90;;;;;;5102838;28;20036;-83
2023/03/31 12:28:37;;;;;;;7.18;2.20;;;12.50;99.90;;;;;;5107542;28;20036;-83
2023/03/31 12:31:06;;;;;;;5.95;2.25;;;12.60;99.90;;;;;;5109146;28;20402;-83
2023/03/31 12:33:39;;;;;;;6.78;2.47;;;12.60;99.90;;;;;;5111440;28;20114;-82
2023/03/31 12:36:15;;;;;;;6.07;2.03;;;12.70;99.90;;;;;;5098950;28;20050;-82
2023/03/31 12:39:02;;;;;;;7.80;2.53;;;12.80;99.90;;;;;;5105381;28;20078;-82
2023/03/31 12:42:09;;;;;;;5.65;1.88;;;12.90;99.90;;;;;;5112095;28;20028;-82
2023/03/31 12:45:01;;;;;;;7.10;2.65;;;13.10;99.90;;;;;;5108239;28;20036;-82
2023/03/31 12:47:38;;;;;;;6.88;2.92;;;13.30;99.90;;;;;;5085523;28;20152;-82
2023/03/31 12:50:18;;;;;;;10.25;2.72;;;13.40;99.90;;;;;;5108189;28;20126;-83
2023/03/31 12:53:11;;;;;;;9.35;3.15;;;13.40;99.90;;;;;;5085993;28;20384;-83
2023/03/31 12:55:37;;;;;;;8.15;2.65;;;13.50;99.90;;;;;;5105209;28;20114;-83
2023/03/31 12:58:21;;;;;;;9.00;2.90;;;13.60;99.90;;;;;;5086637;28;20122;-83
2023/03/31 13:01:06;;;;;;;8.57;2.83;;;13.70;99.90;;;;;;5104408;28;20032;-83
2023/03/31 13:03:40;;;;;;;6.97;2.63;;;13.60;99.90;;;;;;5107458;28;20035;-83
2023/03/31 13:06:10;;;;;;;9.15;2.97;;;13.60;99.90;;;;;;5104199;28;20055;-83
2023/03/31 13:08:53;;;;;;;5.28;2.40;;;13.50;99.90;;;;;;5115364;27;20509;-84
2023/03/31 13:11:35;;;;;;;7.18;2.90;;;13.50;99.90;;;;;;5139976;27;20093;-84
2023/03/31 13:14:04;;;;;;;8.40;2.83;;;13.70;99.90;;;;;;5106820;28;20071;-83